createdAt,value
2022-12-07T00:01:39.920Z,6.80
2022-12-07T00:04:08.187Z,6.85
2022-12-07T00:06:37.320Z,6.75
2022-12-07T00:09:05.151Z,6.97
2022-12-07T00:11:31.860Z,6.78
2022-12-07T00:14:01.234Z,6.65
2022-12-07T00:16:30.491Z,6.75
2022-12-07T00:18:57.815Z,7.10
2022-12-07T00:21:27.949Z,5.80
2022-12-07T00:23:56.328Z,6.05
2022-12-07T00:26:31.748Z,6.60
2022-12-07T00:29:03.517Z,6.20
2022-12-07T00:31:34.468Z,6.85
2022-12-07T00:34:01.462Z,6.95
2022-12-07T00:36:28.305Z,7.38
2022-12-07T00:38:56.211Z,6.20
2022-12-07T00:41:24.848Z,6.30
2022-12-07T00:43:52.165Z,7.20
2022-12-07T00:46:20.079Z,6.68
2022-12-07T00:48:48.067Z,6.75
2022-12-07T00:51:15.758Z,5.95
2022-12-07T00:53:42.650Z,6.68
2022-12-07T00:56:14.285Z,6.15
2022-12-07T00:58:41.100Z,5.88
2022-12-07T01:01:09.028Z,6.38
2022-12-07T01:03:36.203Z,7.20
2022-12-07T01:06:03.838Z,6.35
2022-12-07T01:08:30.719Z,7.03
2022-12-07T01:11:01.718Z,6.78
2022-12-07T01:13:29.407Z,7.30
2022-12-07T01:16:00.828Z,6.25
2022-12-07T01:18:29.247Z,7.45
2022-12-07T01:21:02.094Z,7.20
2022-12-07T01:23:29.241Z,7.30
2022-12-07T01:26:00.794Z,7.03
2022-12-07T01:28:28.060Z,6.68
2022-12-07T01:31:16.343Z,7.97
2022-12-07T01:33:51.251Z,7.07
2022-12-07T01:36:23.451Z,7.85
2022-12-07T01:38:53.423Z,6.73
2022-12-07T01:41:21.676Z,8.45
2022-12-07T01:44:25.719Z,8.40
2022-12-07T01:49:40.070Z,6.05
2022-12-07T01:52:16.998Z,7.00
2022-12-07T01:54:45.256Z,6.40
2022-12-07T01:57:12.730Z,6.80
2022-12-07T01:59:39.600Z,6.63
2022-12-07T02:02:10.895Z,6.47
2022-12-07T02:04:37.630Z,7.47
2022-12-07T02:07:05.733Z,6.40
2022-12-07T02:09:32.501Z,7.40
2022-12-07T02:11:59.243Z,7.30
2022-12-07T02:14:25.924Z,8.15
2022-12-07T02:16:59.337Z,8.40
2022-12-07T02:20:06.287Z,9.60
2022-12-07T02:22:39.106Z,7.80
2022-12-07T02:25:53.658Z,7.22
2022-12-07T02:28:30.401Z,7.22
2022-12-07T02:31:00.853Z,8.35
2022-12-07T02:33:33.122Z,11.05
2022-12-07T02:36:17.822Z,9.53
2022-12-07T02:39:08.242Z,10.27
2022-12-07T02:41:39.152Z,7.65
2022-12-07T02:44:09.618Z,7.85
2022-12-07T02:46:39.537Z,7.07
2022-12-07T02:49:06.668Z,7.68
2022-12-07T02:51:34.376Z,9.15
2022-12-07T02:54:01.216Z,7.80
2022-12-07T02:56:45.857Z,7.82
2022-12-07T02:59:50.078Z,8.73
2022-12-07T03:02:41.714Z,7.97
2022-12-07T03:05:11.566Z,8.52
2022-12-07T03:07:57.051Z,8.38
2022-12-07T03:10:42.755Z,7.05
2022-12-07T03:13:38.381Z,7.10
2022-12-07T03:16:17.246Z,7.05
2022-12-07T03:18:59.515Z,7.82
2022-12-07T03:21:29.143Z,9.20
2022-12-07T03:23:58.541Z,9.70
2022-12-07T03:26:31.796Z,8.57
2022-12-07T03:31:30.645Z,8.00
2022-12-07T03:34:00.084Z,8.13
2022-12-07T03:36:38.735Z,7.90
2022-12-07T03:39:18.178Z,8.18
2022-12-07T03:41:45.622Z,7.85
2022-12-07T03:44:13.619Z,8.68
2022-12-07T03:46:48.279Z,7.57
2022-12-07T03:49:32.228Z,7.25
2022-12-07T03:52:03.880Z,7.63
2022-12-07T03:55:04.698Z,8.15
2022-12-07T03:57:33.176Z,7.90
2022-12-07T04:00:01.566Z,7.55
2022-12-07T04:02:39.023Z,8.43
2022-12-07T04:05:06.332Z,8.38
2022-12-07T04:07:33.056Z,10.23
2022-12-07T04:10:00.479Z,12.02
2022-12-07T04:12:27.673Z,18.55
2022-12-07T04:14:54.435Z,16.33
2022-12-07T04:17:21.364Z,14.10
2022-12-07T04:19:48.155Z,12.38
2022-12-07T04:22:14.942Z,12.00
2022-12-07T04:24:41.717Z,12.40
2022-12-07T04:27:08.627Z,12.30
2022-12-07T04:29:35.405Z,10.10
2022-12-07T04:32:02.413Z,9.80
2022-12-07T04:34:29.149Z,10.05
2022-12-07T04:36:56.201Z,9.02
2022-12-07T04:39:26.320Z,8.70
2022-12-07T04:41:53.427Z,9.70
2022-12-07T04:44:21.365Z,10.15
2022-12-07T04:46:48.388Z,9.93
2022-12-07T04:49:33.801Z,11.65
2022-12-07T04:52:19.289Z,9.00
2022-12-07T04:54:46.104Z,9.23
2022-12-07T04:57:12.921Z,9.02
2022-12-07T04:59:45.139Z,8.75
2022-12-07T05:02:12.598Z,8.70
2022-12-07T05:04:39.400Z,8.77
2022-12-07T05:07:06.372Z,8.52
2022-12-07T05:09:33.413Z,9.45
2022-12-07T05:12:00.221Z,10.55
2022-12-07T05:14:26.935Z,9.23
2022-12-07T05:16:54.573Z,10.48
2022-12-07T05:19:21.522Z,10.52
2022-12-07T05:21:48.329Z,10.45
2022-12-07T05:24:16.508Z,9.38
2022-12-07T05:26:44.023Z,9.88
2022-12-07T05:29:15.754Z,9.32
2022-12-07T05:31:43.147Z,9.05
2022-12-07T05:34:10.231Z,9.50
2022-12-07T05:36:37.428Z,9.43
2022-12-07T05:39:04.570Z,9.02
2022-12-07T05:41:50.054Z,8.68
2022-12-07T05:44:16.752Z,9.23
2022-12-07T05:46:43.488Z,9.75
2022-12-07T05:49:10.265Z,9.07
2022-12-07T05:51:37.163Z,9.13
2022-12-07T05:54:03.938Z,10.25
2022-12-07T05:56:30.739Z,9.63
2022-12-07T05:59:23.604Z,9.52
2022-12-07T06:01:55.571Z,8.23
2022-12-07T06:04:22.990Z,9.43
2022-12-07T06:06:50.100Z,8.93
2022-12-07T06:09:17.049Z,8.88
2022-12-07T06:12:02.504Z,8.63
2022-12-07T06:14:29.215Z,9.60
2022-12-07T06:16:56.165Z,8.90
2022-12-07T06:19:22.999Z,9.13
2022-12-07T06:21:49.724Z,9.45
2022-12-07T06:24:17.398Z,9.88
2022-12-07T06:26:44.261Z,9.93
2022-12-07T06:29:11.606Z,10.75
2022-12-07T06:31:38.528Z,9.77
2022-12-07T06:34:07.919Z,10.77
2022-12-07T06:36:34.652Z,10.55
2022-12-07T06:39:01.525Z,9.75
2022-12-07T06:41:28.416Z,9.23
2022-12-07T06:43:56.431Z,9.93
2022-12-07T06:46:23.691Z,9.80
2022-12-07T06:48:50.750Z,10.25
2022-12-07T06:51:17.580Z,9.95
2022-12-07T06:53:44.285Z,9.60
2022-12-07T06:56:11.079Z,9.98
2022-12-07T06:58:37.855Z,10.27
2022-12-07T07:01:12.695Z,10.10
2022-12-07T07:03:39.641Z,9.18
2022-12-07T07:06:08.261Z,10.95
2022-12-07T07:08:36.219Z,10.77
2022-12-07T07:11:03.325Z,11.52
2022-12-07T07:13:30.245Z,9.75
2022-12-07T07:15:57.160Z,10.52
2022-12-07T07:18:24.144Z,10.48
2022-12-07T07:20:54.096Z,9.30
2022-12-07T07:23:21.527Z,10.20
2022-12-07T07:25:48.903Z,9.77
2022-12-07T07:28:16.317Z,9.63
2022-12-07T07:30:43.103Z,10.45
2022-12-07T07:33:11.049Z,9.50
2022-12-07T07:35:37.955Z,11.13
2022-12-07T07:38:04.721Z,10.38
2022-12-07T07:40:31.405Z,10.82
2022-12-07T07:42:58.852Z,10.40
2022-12-07T07:45:27.191Z,10.98
2022-12-07T07:47:54.033Z,11.48
2022-12-07T07:50:21.971Z,9.43
2022-12-07T07:52:48.739Z,9.35
2022-12-07T07:55:18.457Z,8.93
2022-12-07T07:57:49.705Z,9.73
2022-12-07T08:00:19.745Z,10.40
2022-12-07T08:02:47.064Z,10.65
2022-12-07T08:05:14.404Z,9.75
2022-12-07T08:07:41.888Z,10.40
2022-12-07T08:10:11.040Z,9.32
2022-12-07T08:13:02.415Z,9.07
2022-12-07T08:15:30.644Z,11.20
2022-12-07T08:17:57.472Z,10.13
2022-12-07T08:20:24.239Z,10.77
2022-12-07T08:22:50.988Z,10.50
2022-12-07T08:25:17.875Z,10.05
2022-12-07T08:27:44.641Z,10.82
2022-12-07T08:30:11.524Z,10.88
2022-12-07T08:32:38.288Z,9.98
2022-12-07T08:35:05.249Z,10.30
2022-12-07T08:37:32.602Z,10.50
2022-12-07T08:39:59.413Z,10.98
2022-12-07T08:42:30.536Z,11.77
2022-12-07T08:44:58.266Z,10.18
2022-12-07T08:47:25.672Z,11.82
2022-12-07T08:49:53.144Z,11.45
2022-12-07T08:52:19.934Z,12.60
2022-12-07T08:54:46.746Z,11.43
2022-12-07T08:57:13.466Z,11.55
2022-12-07T08:59:40.172Z,11.88
2022-12-07T09:02:07.513Z,12.60
2022-12-07T09:04:34.295Z,11.88
2022-12-07T09:07:01.023Z,12.25
2022-12-07T09:09:27.777Z,12.52
2022-12-07T09:11:54.489Z,11.00
2022-12-07T09:14:21.215Z,10.88
2022-12-07T09:16:48.051Z,10.38
2022-12-07T09:19:14.738Z,11.15
2022-12-07T09:21:41.457Z,11.32
2022-12-07T09:24:08.195Z,10.57
2022-12-07T09:26:36.082Z,10.07
2022-12-07T09:29:03.852Z,11.50
2022-12-07T09:31:30.725Z,11.43
2022-12-07T09:33:58.960Z,11.02
2022-12-07T09:36:27.031Z,10.43
2022-12-07T09:38:53.794Z,10.30
2022-12-07T09:41:21.597Z,10.30
2022-12-07T09:43:48.390Z,10.98
2022-12-07T09:46:18.333Z,10.38
2022-12-07T09:48:45.829Z,10.50
2022-12-07T09:51:25.998Z,11.00
2022-12-07T09:53:55.209Z,10.15
2022-12-07T09:56:23.146Z,11.20
2022-12-07T09:58:50.733Z,10.43
2022-12-07T10:01:22.361Z,10.77
2022-12-07T10:03:53.559Z,9.88
2022-12-07T10:06:20.367Z,11.85
2022-12-07T10:08:47.387Z,10.48
2022-12-07T10:11:15.776Z,9.80
2022-12-07T10:13:44.602Z,8.98
2022-12-07T10:16:29.568Z,10.35
2022-12-07T10:18:56.411Z,9.82
2022-12-07T10:21:27.363Z,9.93
2022-12-07T10:24:26.641Z,9.82
2022-12-07T10:26:54.110Z,10.88
2022-12-07T10:29:35.805Z,10.68
2022-12-07T10:32:05.900Z,10.10
2022-12-07T10:34:41.225Z,10.10
2022-12-07T10:37:18.410Z,8.52
2022-12-07T10:39:46.552Z,9.40
2022-12-07T10:42:32.707Z,10.25
2022-12-07T10:45:11.191Z,10.07
2022-12-07T10:47:45.205Z,9.55
2022-12-07T10:50:41.194Z,9.70
2022-12-07T10:53:10.896Z,9.43
2022-12-07T10:56:19.671Z,10.32
2022-12-07T10:59:17.979Z,9.57
2022-12-07T11:02:18.973Z,9.73
2022-12-07T11:05:07.121Z,9.90
2022-12-07T11:07:53.639Z,9.82
2022-12-07T11:10:54.256Z,9.38
2022-12-07T11:13:28.791Z,8.98
2022-12-07T11:16:19.721Z,10.05
2022-12-07T11:18:54.569Z,9.88
2022-12-07T11:21:37.566Z,10.00
2022-12-07T11:24:18.059Z,9.02
2022-12-07T11:26:59.581Z,10.75
2022-12-07T11:29:52.957Z,10.02
2022-12-07T11:32:50.589Z,10.00
2022-12-07T11:35:30.705Z,11.30
2022-12-07T11:38:00.796Z,9.57
2022-12-07T11:40:30.669Z,10.48
2022-12-07T11:43:10.844Z,11.57
2022-12-07T11:45:45.297Z,10.73
2022-12-07T11:48:33.026Z,10.25
2022-12-07T11:51:02.107Z,9.70
2022-12-07T11:53:40.183Z,10.43
2022-12-07T11:56:12.572Z,10.23
2022-12-07T11:58:49.832Z,10.30
2022-12-07T12:01:31.956Z,9.80
2022-12-07T12:04:11.462Z,10.23
2022-12-07T12:06:39.324Z,9.90
2022-12-07T12:15:31.461Z,9.13
2022-12-07T12:18:10.280Z,8.98
2022-12-07T12:20:46.361Z,9.30
2022-12-07T12:23:16.018Z,8.75
2022-12-07T12:25:52.199Z,8.95
2022-12-07T12:28:50.574Z,9.40
2022-12-07T12:31:26.146Z,8.82
2022-12-07T12:33:54.490Z,9.63
2022-12-07T12:36:31.862Z,9.25
2022-12-07T12:39:07.706Z,8.88
2022-12-07T12:41:42.471Z,10.55
2022-12-07T12:44:15.116Z,9.30
2022-12-07T12:46:50.195Z,9.60
2022-12-07T12:49:17.270Z,8.50
2022-12-07T12:51:54.819Z,8.95
2022-12-07T12:54:27.165Z,9.27
2022-12-07T12:57:14.093Z,9.67
2022-12-07T12:59:58.471Z,8.93
2022-12-07T13:02:34.081Z,9.90
2022-12-07T13:05:03.021Z,9.95
2022-12-07T13:07:45.360Z,9.63
2022-12-07T13:10:35.768Z,10.02
2022-12-07T13:13:20.713Z,9.60
2022-12-07T13:15:51.410Z,10.65
2022-12-07T13:18:24.101Z,10.15
2022-12-07T13:20:56.056Z,11.35
2022-12-07T13:23:31.038Z,11.52
2022-12-07T13:26:02.062Z,11.40
2022-12-07T13:28:36.534Z,11.10
2022-12-07T13:31:30.651Z,9.73
2022-12-07T13:33:57.393Z,9.23
2022-12-07T13:36:32.592Z,9.70
2022-12-07T13:39:01.569Z,10.85
2022-12-07T13:41:29.642Z,9.82
2022-12-07T13:44:16.563Z,9.07
2022-12-07T13:47:13.497Z,9.30
2022-12-07T13:49:53.214Z,9.68
2022-12-07T13:52:31.649Z,10.25
2022-12-07T13:55:07.488Z,10.63
2022-12-07T13:57:36.376Z,11.07
2022-12-07T14:00:05.826Z,11.00
2022-12-07T14:02:39.932Z,9.65
2022-12-07T14:05:24.179Z,9.65
2022-12-07T14:07:56.917Z,9.98
2022-12-07T14:10:29.952Z,9.57
2022-12-07T14:12:57.732Z,10.07
2022-12-07T14:15:28.226Z,9.00
2022-12-07T14:17:56.530Z,11.55
2022-12-07T14:20:37.039Z,11.77
2022-12-07T14:23:10.124Z,10.35
2022-12-07T14:28:30.311Z,10.48
2022-12-07T14:30:57.065Z,9.10
2022-12-07T14:33:25.266Z,9.50
2022-12-07T14:35:56.102Z,10.95
2022-12-07T14:38:23.227Z,11.02
2022-12-07T14:40:50.042Z,10.43
2022-12-07T14:43:18.302Z,10.55
2022-12-07T14:45:45.189Z,11.10
2022-12-07T14:53:55.059Z,10.60
2022-12-07T14:56:25.157Z,10.48
2022-12-07T14:58:52.013Z,10.35
2022-12-07T15:01:18.818Z,9.93
2022-12-07T15:03:45.616Z,9.38
2022-12-07T15:06:16.244Z,10.25
2022-12-07T15:08:45.122Z,11.35
2022-12-07T15:11:15.924Z,11.00
2022-12-07T15:14:09.162Z,11.02
2022-12-07T15:17:06.690Z,10.13
2022-12-07T15:19:28.505Z,11.65
2022-12-07T15:21:56.317Z,11.48
2022-12-07T15:24:24.941Z,9.15
2022-12-07T15:26:51.730Z,11.40
2022-12-07T15:29:22.791Z,10.38
2022-12-07T15:31:56.887Z,10.27
2022-12-07T15:34:34.798Z,9.57
2022-12-07T15:37:02.970Z,10.35
2022-12-07T15:39:29.661Z,9.30
2022-12-07T15:41:56.398Z,9.60
2022-12-07T15:44:41.822Z,9.88
2022-12-07T15:47:08.593Z,10.55
2022-12-07T15:49:35.358Z,10.15
2022-12-07T15:52:02.103Z,9.65
2022-12-07T15:54:29.929Z,13.20
2022-12-07T15:56:57.249Z,16.10
2022-12-07T15:59:24.105Z,14.90
2022-12-07T16:01:50.886Z,15.27
2022-12-07T16:04:17.642Z,15.27
2022-12-07T16:06:44.440Z,13.13
2022-12-07T16:09:11.273Z,13.48
2022-12-07T16:11:38.012Z,12.27
2022-12-07T16:14:04.689Z,13.07
2022-12-07T16:16:31.762Z,15.18
2022-12-07T16:18:58.842Z,13.63
2022-12-07T16:21:25.992Z,12.65
2022-12-07T16:23:53.239Z,11.65
2022-12-07T16:26:21.828Z,11.85
2022-12-07T16:28:53.036Z,11.75
2022-12-07T16:31:25.577Z,13.20
2022-12-07T16:33:55.289Z,15.38
2022-12-07T16:36:40.360Z,11.50
2022-12-07T16:39:10.361Z,11.80
2022-12-07T16:41:37.448Z,11.82
2022-12-07T16:44:06.444Z,11.27
2022-12-07T16:46:34.410Z,10.80
2022-12-07T16:49:01.537Z,12.32
2022-12-07T16:51:28.519Z,12.95
2022-12-07T16:53:55.255Z,12.02
2022-12-07T16:56:22.094Z,11.80
2022-12-07T16:58:50.753Z,11.40
2022-12-07T17:01:20.029Z,11.20
2022-12-07T17:03:47.360Z,11.95
2022-12-07T17:06:19.620Z,11.20
2022-12-07T17:08:46.558Z,10.52
2022-12-07T17:11:16.682Z,10.75
2022-12-07T17:14:01.957Z,12.18
2022-12-07T17:16:29.632Z,12.38
2022-12-07T17:18:56.640Z,10.43
2022-12-07T17:21:23.532Z,10.63
2022-12-07T17:23:50.703Z,10.95
2022-12-07T17:26:21.127Z,11.23
2022-12-07T17:28:47.921Z,11.35
2022-12-07T17:31:16.747Z,11.93
2022-12-07T17:33:43.656Z,13.38
2022-12-07T17:36:18.318Z,12.43
2022-12-07T17:38:45.267Z,13.25
2022-12-07T17:41:13.711Z,12.48
2022-12-07T17:43:40.452Z,14.85
2022-12-07T17:46:09.007Z,14.57
2022-12-07T17:48:36.467Z,14.40
2022-12-07T17:51:22.480Z,12.50
2022-12-07T17:53:50.780Z,12.00
2022-12-07T17:56:28.552Z,11.82
2022-12-07T17:58:55.804Z,14.50
2022-12-07T18:01:24.215Z,12.05
2022-12-07T18:03:51.690Z,13.90
2022-12-07T18:06:18.390Z,11.88
2022-12-07T18:08:45.108Z,18.15
2022-12-07T18:11:11.901Z,13.45
2022-12-07T18:13:38.734Z,11.20
2022-12-07T18:16:21.110Z,13.32
2022-12-07T18:18:52.545Z,17.75
2022-12-07T18:21:27.881Z,12.90
2022-12-07T18:23:57.053Z,12.80
2022-12-07T18:26:25.799Z,11.88
2022-12-07T18:28:52.958Z,12.25
2022-12-07T18:31:20.500Z,13.30
2022-12-07T18:33:48.294Z,12.82
2022-12-07T18:36:16.460Z,12.43
2022-12-07T18:38:43.167Z,13.02
2022-12-07T18:41:12.306Z,10.70
2022-12-07T18:43:39.128Z,12.10
2022-12-07T18:46:20.140Z,12.48
2022-12-07T18:48:47.488Z,12.02
2022-12-07T18:51:15.323Z,13.50
2022-12-07T18:53:42.751Z,12.13
2022-12-07T18:56:18.128Z,12.10
2022-12-07T18:59:08.003Z,23.15
2022-12-07T19:01:34.936Z,22.30
2022-12-07T19:04:02.241Z,16.65
2022-12-07T19:06:29.113Z,14.27
2022-12-07T19:08:56.150Z,11.85
2022-12-07T19:11:44.116Z,11.43
2022-12-07T19:14:11.158Z,12.68
2022-12-07T19:16:38.748Z,11.88
2022-12-07T19:19:05.534Z,11.73
2022-12-07T19:21:32.279Z,11.05
2022-12-07T19:23:59.094Z,10.60
2022-12-07T19:26:25.909Z,11.65
2022-12-07T19:28:52.721Z,11.07
2022-12-07T19:31:19.523Z,11.50
2022-12-07T19:33:46.570Z,11.50
2022-12-07T19:36:13.437Z,12.05
2022-12-07T19:38:40.351Z,11.85
2022-12-07T19:41:30.544Z,12.57
2022-12-07T19:43:57.760Z,14.00
2022-12-07T19:46:24.887Z,13.35
2022-12-07T19:48:51.795Z,13.15
2022-12-07T19:51:18.778Z,14.10
2022-12-07T19:53:45.529Z,13.95
2022-12-07T19:56:19.181Z,11.40
2022-12-07T19:58:46.252Z,10.80
2022-12-07T20:01:13.077Z,10.88
2022-12-07T20:03:39.946Z,10.90
2022-12-07T20:06:15.603Z,11.15
2022-12-07T20:08:43.087Z,11.63
2022-12-07T20:11:28.928Z,12.18
2022-12-07T20:13:55.676Z,12.05
2022-12-07T20:16:22.760Z,13.00
2022-12-07T20:18:54.295Z,12.23
2022-12-07T20:21:24.471Z,12.23
2022-12-07T20:23:51.237Z,14.05
2022-12-07T20:26:18.921Z,13.20
2022-12-07T20:28:46.588Z,13.82
2022-12-07T20:31:14.749Z,13.07
2022-12-07T20:33:43.405Z,11.18
2022-12-07T20:36:10.271Z,11.73
2022-12-07T20:38:37.440Z,13.80
2022-12-07T20:41:06.242Z,11.57
2022-12-07T20:43:33.572Z,11.98
2022-12-07T20:46:00.586Z,12.77
2022-12-07T20:48:27.486Z,13.90
2022-12-07T20:50:54.715Z,14.07
2022-12-07T20:53:21.455Z,12.95
2022-12-07T20:55:48.213Z,12.57
2022-12-07T20:58:14.921Z,12.40
2022-12-07T21:00:41.991Z,12.18
2022-12-07T21:03:09.449Z,11.95
2022-12-07T21:05:36.248Z,12.07
2022-12-07T21:08:03.155Z,12.18
2022-12-07T21:10:29.951Z,12.80
2022-12-07T21:12:56.699Z,11.75
2022-12-07T21:15:23.378Z,11.52
2022-12-07T21:17:50.231Z,11.98
2022-12-07T21:20:16.964Z,9.88
2022-12-07T21:22:43.728Z,10.43
2022-12-07T21:25:10.566Z,11.23
2022-12-07T21:27:37.269Z,10.82
2022-12-07T21:30:04.421Z,10.40
2022-12-07T21:32:31.177Z,10.77
2022-12-07T21:34:57.998Z,10.57
2022-12-07T21:37:24.783Z,10.45
2022-12-07T21:39:51.610Z,9.95
2022-12-07T21:42:18.346Z,10.70
2022-12-07T21:44:45.175Z,10.63
2022-12-07T21:47:11.880Z,10.02
2022-12-07T21:49:38.639Z,11.02
2022-12-07T21:52:05.542Z,11.02
2022-12-07T21:54:32.839Z,11.00
2022-12-07T21:56:59.808Z,11.48
2022-12-07T21:59:26.642Z,11.43
2022-12-07T22:01:53.461Z,12.73
2022-12-07T22:04:22.543Z,11.55
2022-12-07T22:06:49.760Z,11.15
2022-12-07T22:09:18.695Z,11.00
2022-12-07T22:11:46.171Z,11.40
2022-12-07T22:14:31.370Z,11.63
2022-12-07T22:16:58.623Z,12.50
2022-12-07T22:19:26.445Z,11.75
2022-12-07T22:21:53.167Z,10.95
2022-12-07T22:24:20.071Z,12.65
2022-12-07T22:26:46.946Z,12.05
2022-12-07T22:29:13.733Z,11.82
2022-12-07T22:31:41.165Z,11.70
2022-12-07T22:34:14.657Z,11.63
2022-12-07T22:39:09.102Z,12.38
2022-12-07T22:41:35.981Z,11.98
2022-12-07T22:44:05.695Z,11.88
2022-12-07T22:46:33.950Z,15.98
2022-12-07T22:49:01.150Z,20.88
2022-12-07T22:51:30.843Z,18.58
2022-12-07T22:54:02.506Z,17.35
2022-12-07T22:56:31.233Z,15.20
2022-12-07T22:58:58.230Z,15.50
2022-12-07T23:01:24.986Z,14.55
2022-12-07T23:03:51.886Z,19.48
2022-12-07T23:06:24.311Z,15.98
2022-12-07T23:08:51.734Z,13.17
2022-12-07T23:11:44.111Z,13.10
2022-12-07T23:14:16.521Z,12.43
2022-12-07T23:16:44.439Z,12.63
2022-12-07T23:19:12.016Z,12.32
2022-12-07T23:21:40.253Z,13.05
2022-12-07T23:24:07.608Z,12.40
2022-12-07T23:26:34.467Z,12.48
2022-12-07T23:29:01.244Z,13.95
2022-12-07T23:31:28.077Z,12.38
2022-12-07T23:33:54.859Z,15.20
2022-12-07T23:36:23.854Z,14.73
2022-12-07T23:38:51.470Z,14.45
2022-12-07T23:41:21.528Z,13.20
2022-12-07T23:43:48.696Z,13.10
2022-12-07T23:46:18.266Z,12.80
2022-12-07T23:48:46.060Z,13.60
2022-12-07T23:51:13.468Z,13.93
2022-12-07T23:53:42.819Z,12.77
2022-12-07T23:56:19.059Z,12.55
2022-12-07T23:58:46.859Z,12.48
